createdAt,value
2022-12-19T17:38:24.005Z,9.55
2022-12-19T17:39:23.932Z,9.51
2022-12-19T17:40:23.882Z,9.49
2022-12-19T17:41:23.835Z,9.52
2022-12-19T17:42:23.790Z,9.49
2022-12-19T17:43:23.730Z,9.51
2022-12-19T17:44:23.684Z,9.52
2022-12-19T17:45:23.659Z,9.54
2022-12-19T17:46:23.709Z,9.58
2022-12-19T17:47:23.539Z,9.58
2022-12-19T17:48:23.499Z,9.59
2022-12-19T17:49:23.438Z,9.59
2022-12-19T17:50:23.392Z,9.48
2022-12-19T17:51:23.349Z,9.56
2022-12-19T17:52:23.293Z,9.55
2022-12-19T17:53:23.257Z,9.56
2022-12-19T17:54:23.234Z,9.64
2022-12-19T17:55:23.156Z,9.58
2022-12-19T17:56:23.112Z,9.56
2022-12-19T17:57:23.065Z,9.58
2022-12-19T17:58:23.018Z,9.62
2022-12-19T17:59:22.979Z,9.66
2022-12-19T18:00:29.959Z,9.67
2022-12-19T18:01:23.099Z,9.58
2022-12-19T18:02:23.017Z,9.66
2022-12-19T18:03:23.039Z,9.63
2022-12-19T18:04:22.743Z,9.67
2022-12-19T18:05:22.698Z,9.63
2022-12-19T18:06:22.696Z,9.69
2022-12-19T18:07:22.614Z,9.72
2022-12-19T18:08:22.569Z,9.63
2022-12-19T18:09:22.517Z,9.69
2022-12-19T18:10:22.496Z,9.76
2022-12-19T18:11:22.431Z,9.80
2022-12-19T18:12:22.380Z,9.72
2022-12-19T18:13:22.340Z,9.82
2022-12-19T18:14:22.312Z,9.81
2022-12-19T18:15:22.251Z,9.77
2022-12-19T18:16:22.268Z,9.77
2022-12-19T18:17:22.155Z,9.80
2022-12-19T18:18:22.110Z,9.84
2022-12-19T18:19:22.066Z,9.85
2022-12-19T18:20:27.769Z,9.76
2022-12-19T18:21:21.975Z,9.85
2022-12-19T18:22:21.937Z,9.90
2022-12-19T18:23:21.894Z,9.90
2022-12-19T18:24:21.837Z,9.84
2022-12-19T18:25:21.802Z,9.87
2022-12-19T18:26:21.820Z,9.91
2022-12-19T18:27:21.706Z,9.91
2022-12-19T18:28:21.665Z,9.94
2022-12-19T18:29:21.614Z,9.90
2022-12-19T18:30:21.573Z,10.05
2022-12-19T18:31:21.584Z,9.97
2022-12-19T18:32:21.480Z,10.00
2022-12-19T18:33:21.440Z,10.02
2022-12-19T18:34:21.394Z,9.97
2022-12-19T18:35:21.358Z,10.02
2022-12-19T18:36:21.302Z,10.03
2022-12-19T18:37:21.257Z,10.03
2022-12-19T18:38:21.215Z,10.02
2022-12-19T18:39:21.178Z,10.06
2022-12-19T18:40:26.012Z,10.06
2022-12-19T18:41:21.102Z,10.06
2022-12-19T18:42:21.063Z,10.05
2022-12-19T18:43:20.998Z,10.05
2022-12-19T18:44:20.941Z,10.17
2022-12-19T18:45:20.915Z,10.09
2022-12-19T18:46:20.899Z,10.13
2022-12-19T18:47:20.809Z,10.20
2022-12-19T18:48:20.765Z,10.13
2022-12-19T18:49:20.729Z,10.15
2022-12-19T18:50:20.674Z,10.13
2022-12-19T18:51:20.633Z,10.17
2022-12-19T18:52:20.596Z,10.21
2022-12-19T18:53:20.542Z,10.20
2022-12-19T18:54:20.512Z,10.23
2022-12-19T18:55:20.453Z,10.24
2022-12-19T18:56:20.406Z,10.23
2022-12-19T18:57:20.363Z,10.23
2022-12-19T18:58:20.336Z,10.24
2022-12-19T18:59:20.283Z,10.24
2022-12-19T19:00:20.231Z,10.23
2022-12-19T19:01:20.351Z,10.24
2022-12-19T19:02:20.403Z,10.28
2022-12-19T19:03:20.308Z,10.23
2022-12-19T19:04:20.067Z,10.24
2022-12-19T19:05:20.015Z,10.21
2022-12-19T19:06:19.962Z,10.27
2022-12-19T19:07:19.924Z,10.28
2022-12-19T19:08:19.876Z,10.30
2022-12-19T19:09:19.838Z,10.31
2022-12-19T19:10:19.806Z,10.43
2022-12-19T19:11:19.740Z,10.34
2022-12-19T19:12:19.692Z,10.31
2022-12-19T19:13:19.655Z,10.48
2022-12-19T19:14:19.624Z,10.46
2022-12-19T19:15:19.573Z,10.42
2022-12-19T19:16:19.586Z,10.42
2022-12-19T19:17:19.531Z,10.53
2022-12-19T19:18:19.426Z,10.49
2022-12-19T19:19:19.392Z,10.51
2022-12-19T19:20:19.336Z,10.49
2022-12-19T19:21:19.295Z,10.58
2022-12-19T19:22:19.251Z,10.61
2022-12-19T19:23:19.205Z,10.51
2022-12-19T19:24:19.162Z,10.67
2022-12-19T19:25:19.134Z,10.59
2022-12-19T19:26:19.071Z,10.64
2022-12-19T19:27:19.028Z,10.62
2022-12-19T19:28:18.981Z,10.62
2022-12-19T19:29:19.092Z,10.61
2022-12-19T19:30:18.930Z,10.61
2022-12-19T19:31:18.934Z,10.71
2022-12-19T19:32:18.805Z,10.76
2022-12-19T19:33:18.786Z,10.76
2022-12-19T19:34:18.716Z,10.67
2022-12-19T19:35:18.673Z,10.72
2022-12-19T19:36:18.626Z,10.72
2022-12-19T19:37:18.593Z,10.76
2022-12-19T19:38:18.539Z,10.62
2022-12-19T19:39:18.507Z,10.62
2022-12-19T19:40:18.446Z,10.62
2022-12-19T19:41:18.406Z,10.59
2022-12-19T19:42:18.365Z,10.65
2022-12-19T19:43:18.317Z,10.61
2022-12-19T19:44:18.308Z,10.59
2022-12-19T19:45:18.227Z,10.61
2022-12-19T19:46:18.319Z,10.61
2022-12-19T19:47:18.166Z,10.58
2022-12-19T19:48:18.093Z,10.61
2022-12-19T19:49:18.050Z,10.62
2022-12-19T19:50:18.007Z,10.61
2022-12-19T19:51:17.964Z,10.68
2022-12-19T19:52:17.940Z,10.61
2022-12-19T19:53:17.879Z,10.71
2022-12-19T19:54:17.931Z,10.71
2022-12-19T19:55:17.825Z,10.65
2022-12-19T19:56:17.827Z,10.69
2022-12-19T19:57:17.778Z,10.72
2022-12-19T19:58:17.649Z,10.69
2022-12-19T19:59:17.611Z,10.71
2022-12-19T20:00:17.562Z,10.71
2022-12-19T20:01:17.628Z,10.67
2022-12-19T20:02:17.734Z,10.67
2022-12-19T20:03:22.474Z,10.71
2022-12-19T20:04:17.491Z,10.75
2022-12-19T20:05:17.346Z,10.77
2022-12-19T20:06:17.294Z,10.69
2022-12-19T20:07:17.261Z,10.83
2022-12-19T20:08:17.207Z,10.80
2022-12-19T20:09:17.238Z,10.76
2022-12-19T20:10:17.146Z,10.72
2022-12-19T20:11:17.108Z,10.75
2022-12-19T20:12:17.030Z,10.82
2022-12-19T20:13:16.999Z,10.82
2022-12-19T20:14:16.942Z,10.86
2022-12-19T20:15:16.902Z,10.77
2022-12-19T20:16:17.026Z,10.84
2022-12-19T20:17:16.808Z,10.83
2022-12-19T20:18:16.785Z,10.79
2022-12-19T20:19:16.721Z,10.82
2022-12-19T20:20:16.685Z,10.84
2022-12-19T20:21:16.632Z,10.84
2022-12-19T20:22:16.590Z,10.87
2022-12-19T20:23:16.548Z,10.83
2022-12-19T20:24:16.496Z,10.86
2022-12-19T20:25:16.461Z,10.82
2022-12-19T20:26:16.622Z,10.80
2022-12-19T20:27:16.362Z,10.82
2022-12-19T20:28:16.316Z,10.84
2022-12-19T20:29:16.319Z,10.83
2022-12-19T20:30:16.232Z,10.80
2022-12-19T20:31:16.341Z,10.87
2022-12-19T20:32:16.143Z,10.84
2022-12-19T20:33:16.104Z,10.87
2022-12-19T20:34:16.076Z,10.89
2022-12-19T20:35:16.010Z,10.87
2022-12-19T20:36:16.020Z,10.89
2022-12-19T20:37:15.934Z,10.89
2022-12-19T20:38:15.884Z,10.92
2022-12-19T20:39:15.830Z,10.90
2022-12-19T20:40:15.791Z,10.90
2022-12-19T20:41:15.755Z,10.87
2022-12-19T20:42:15.698Z,10.90
2022-12-19T20:43:15.653Z,10.87
2022-12-19T20:44:22.065Z,10.87
2022-12-19T20:45:15.569Z,10.90
2022-12-19T20:46:15.740Z,10.86
2022-12-19T20:47:15.477Z,10.86
2022-12-19T20:48:15.430Z,10.86
2022-12-19T20:49:15.390Z,10.97
2022-12-19T20:50:15.371Z,10.97
2022-12-19T20:51:15.295Z,10.90
2022-12-19T20:52:15.257Z,10.98
2022-12-19T20:53:15.212Z,10.94
2022-12-19T20:54:15.168Z,10.94
2022-12-19T20:55:15.122Z,10.98
2022-12-19T20:56:15.075Z,10.98
2022-12-19T20:57:15.038Z,11.00
2022-12-19T20:58:14.988Z,11.02
2022-12-19T20:59:14.945Z,11.05
2022-12-19T21:00:14.903Z,11.00
2022-12-19T21:01:14.895Z,11.02
2022-12-19T21:02:14.952Z,11.07
2022-12-19T21:03:27.887Z,11.12
2022-12-19T21:04:14.973Z,11.08
2022-12-19T21:05:14.728Z,11.10
2022-12-19T21:06:14.664Z,11.08
2022-12-19T21:07:14.594Z,11.13
2022-12-19T21:08:14.548Z,11.13
2022-12-19T21:10:14.460Z,11.22
2022-12-19T21:11:14.414Z,11.16
2022-12-19T21:12:14.376Z,11.08
2022-12-19T21:13:14.325Z,11.22
2022-12-19T21:14:14.287Z,11.18
2022-12-19T21:15:14.238Z,11.18
2022-12-19T21:16:14.554Z,11.15
2022-12-19T21:17:14.176Z,11.18
2022-12-19T21:18:14.112Z,11.19
2022-12-19T21:19:14.061Z,11.20
2022-12-19T21:20:14.028Z,11.16
2022-12-19T21:21:13.974Z,11.19
2022-12-19T21:22:13.976Z,11.19
2022-12-19T21:23:13.892Z,11.20
2022-12-19T21:24:13.840Z,11.22
2022-12-19T21:25:13.794Z,11.23
2022-12-19T21:26:13.757Z,11.31
2022-12-19T21:27:13.709Z,11.25
2022-12-19T21:28:13.662Z,11.26
2022-12-19T21:29:13.624Z,11.31
2022-12-19T21:30:13.576Z,11.22
2022-12-19T21:31:13.597Z,11.37
2022-12-19T21:32:18.621Z,11.27
2022-12-19T21:33:13.443Z,11.26
2022-12-19T21:34:13.401Z,11.34
2022-12-19T21:35:13.354Z,11.35
2022-12-19T21:36:13.309Z,11.35
2022-12-19T21:37:13.262Z,11.43
2022-12-19T21:38:13.244Z,11.43
2022-12-19T21:39:13.218Z,11.48
2022-12-19T21:40:13.143Z,11.41
2022-12-19T21:41:13.091Z,11.45
2022-12-19T21:42:13.046Z,11.48
2022-12-19T21:43:13.000Z,11.38
2022-12-19T21:44:12.963Z,11.48
2022-12-19T21:45:12.925Z,11.37
2022-12-19T21:46:12.985Z,11.45
2022-12-19T21:47:12.964Z,11.48
2022-12-19T21:48:12.790Z,11.45
2022-12-19T21:49:12.756Z,11.51
2022-12-19T21:50:12.718Z,11.56
2022-12-19T21:51:12.647Z,11.55
2022-12-19T21:52:12.603Z,11.59
2022-12-19T21:53:12.555Z,11.59
2022-12-19T21:54:12.546Z,11.49
2022-12-19T21:55:12.467Z,11.53
2022-12-19T21:56:12.426Z,11.44
2022-12-19T21:57:12.388Z,11.49
2022-12-19T21:58:12.344Z,11.52
2022-12-19T21:59:12.289Z,11.53
2022-12-19T22:00:12.247Z,11.45
2022-12-19T22:01:12.234Z,11.56
2022-12-19T22:02:12.374Z,11.53
2022-12-19T22:03:14.416Z,11.56
2022-12-19T22:04:12.197Z,11.56
2022-12-19T22:05:12.029Z,11.58
2022-12-19T22:06:11.985Z,11.56
2022-12-19T22:07:11.948Z,11.56
2022-12-19T22:08:11.891Z,11.56
2022-12-19T22:09:11.853Z,11.45
2022-12-19T22:10:11.835Z,11.49
2022-12-19T22:11:11.763Z,11.43
2022-12-19T22:12:11.716Z,11.38
2022-12-19T22:13:11.679Z,11.49
2022-12-19T22:14:11.654Z,11.51
2022-12-19T22:16:11.629Z,11.51
2022-12-19T22:17:11.513Z,11.41
2022-12-19T22:19:11.436Z,11.45
2022-12-19T22:20:11.401Z,11.45
2022-12-19T22:21:11.341Z,11.35
2022-12-19T22:22:11.299Z,11.40
2022-12-19T22:23:13.258Z,11.40
2022-12-19T22:24:11.215Z,11.43
2022-12-19T22:25:11.165Z,11.43
2022-12-19T22:26:11.175Z,11.43
2022-12-19T22:27:11.089Z,11.44
2022-12-19T22:28:11.032Z,11.51
2022-12-19T22:29:10.990Z,11.44
2022-12-19T22:30:11.538Z,11.41
2022-12-19T22:31:10.991Z,11.44
2022-12-19T22:32:10.851Z,11.52
2022-12-19T22:33:10.811Z,11.56
2022-12-19T22:34:10.783Z,11.56
2022-12-19T22:35:10.763Z,11.48
2022-12-19T22:36:15.031Z,11.45
2022-12-19T22:37:10.721Z,11.51
2022-12-19T22:38:10.590Z,11.58
2022-12-19T22:39:10.543Z,11.59
2022-12-19T22:40:10.499Z,11.56
2022-12-19T22:41:10.455Z,11.52
2022-12-19T22:42:10.440Z,11.43
2022-12-19T22:43:10.366Z,11.56
2022-12-19T22:44:10.325Z,11.45
2022-12-19T22:45:10.257Z,11.51
2022-12-19T22:46:10.334Z,11.55
2022-12-19T22:47:10.189Z,11.53
2022-12-19T22:48:10.159Z,11.45
2022-12-19T22:49:10.101Z,11.52
2022-12-19T22:51:10.033Z,11.56
2022-12-19T22:52:09.967Z,11.58
2022-12-19T22:53:12.905Z,11.53
2022-12-19T22:54:09.884Z,11.45
2022-12-19T22:55:09.915Z,11.56
2022-12-19T22:56:09.793Z,11.55
2022-12-19T22:57:09.751Z,11.48
2022-12-19T22:58:09.724Z,11.59
2022-12-19T22:59:09.666Z,11.58
2022-12-19T23:00:09.922Z,11.59
2022-12-19T23:01:09.573Z,11.58
2022-12-19T23:02:09.785Z,11.58
2022-12-19T23:03:09.656Z,11.68
2022-12-19T23:04:09.804Z,11.59
2022-12-19T23:05:09.405Z,11.65
2022-12-19T23:06:09.564Z,11.71
2022-12-19T23:07:09.315Z,11.65
2022-12-19T23:08:09.268Z,11.60
2022-12-19T23:09:09.223Z,11.62
2022-12-19T23:10:09.158Z,11.70
2022-12-19T23:11:09.132Z,11.70
2022-12-19T23:12:09.096Z,11.68
2022-12-19T23:13:09.031Z,11.67
2022-12-19T23:14:09.034Z,11.68
2022-12-19T23:15:08.960Z,11.67
2022-12-19T23:16:08.969Z,11.68
2022-12-19T23:17:09.257Z,11.70
2022-12-19T23:18:09.029Z,11.76
2022-12-19T23:19:08.783Z,11.70
2022-12-19T23:20:08.736Z,11.70
2022-12-19T23:21:09.368Z,11.70
2022-12-19T23:22:08.649Z,11.77
2022-12-19T23:23:08.609Z,11.71
2022-12-19T23:24:08.573Z,11.76
2022-12-19T23:25:08.514Z,11.76
2022-12-19T23:26:15.082Z,11.74
2022-12-19T23:27:08.439Z,11.81
2022-12-19T23:28:08.381Z,11.78
2022-12-19T23:29:08.349Z,11.78
2022-12-19T23:30:08.337Z,11.83
2022-12-19T23:31:08.253Z,11.80
2022-12-19T23:32:08.262Z,11.73
2022-12-19T23:33:08.172Z,11.85
2022-12-19T23:34:08.111Z,11.81
2022-12-19T23:35:08.084Z,11.86
2022-12-19T23:36:08.080Z,11.81
2022-12-19T23:37:11.259Z,11.77
2022-12-19T23:38:07.944Z,11.83
2022-12-19T23:39:07.931Z,11.88
2022-12-19T23:40:07.897Z,11.91
2022-12-19T23:41:07.813Z,11.88
2022-12-19T23:42:07.772Z,11.89
2022-12-19T23:43:07.723Z,11.89
2022-12-19T23:44:07.687Z,11.97
2022-12-19T23:45:07.642Z,11.88
2022-12-19T23:46:07.654Z,11.89
2022-12-19T23:47:07.554Z,11.91
2022-12-19T23:48:07.509Z,12.00
2022-12-19T23:49:07.543Z,11.93
2022-12-19T23:50:07.425Z,12.05
2022-12-19T23:51:07.381Z,11.88
2022-12-19T23:52:07.328Z,11.89
2022-12-19T23:53:07.289Z,12.03
